Hovedside
METAR-TAF:

METAR-TAF

Lufthavner :

Alta lufthavn

Alta, Norge

breddegrad: 69-59N, lengdegrad: 023-22E, høyde over havet: 0 m

Gjeldene værobservasjon

Denne rapporten ble laget for 43 minutter siden, klokken 16:50 UTC
Vind 20 kt fra Vest-nordvest
Temperatur 8°C
Luftfuktighet 57%
Trykk 1023 hPa
Sikt 10 km eller mer
Spredte skyer i en høyde av 4000 ft
regnbyger i nærheten

METAR: ENAT 261650Z 30020KT 9999 VCSH SCT040 08/00 Q1023 RMK WIND 700FT 31024KT

Tid: 19:33 (17:33 UTC)


TAF: fraværende

Værobservasjoner og værvarsel for over 4000 flyplasser (METAR- og TAF-rapporter).

Tilgjengelige stasjoner er representert av de røde og gule prikkene på kartet.

Hold musepekeren over prikken for å se navnet på stasjonen.

Klikk så for å se værobservasjoner og -varsler.

For å forandre kartet kan du klikke på den grønne knappen med svart kryss for å zoome inn, på den grønne knappen med strek for å zoome ut, eller på de grønne pilene for å se tilstøtende kart.


METAR-TAF: